sensor_id;sensor_type;location;lat;lon;timestamp;P1;durP1;ratioP1;P2;durP2;ratioP2
40076;SDS011;25777;47.824;18.982;2024-01-11T00:00:35;21.63;;;8.57;;
40076;SDS011;25777;47.824;18.982;2024-01-11T00:03:01;25.50;;;8.90;;
40076;SDS011;25777;47.824;18.982;2024-01-11T00:05:27;27.70;;;9.20;;
40076;SDS011;25777;47.824;18.982;2024-01-11T00:07:52;23.27;;;9.00;;
40076;SDS011;25777;47.824;18.982;2024-01-11T00:10:18;28.67;;;8.93;;
40076;SDS011;25777;47.824;18.982;2024-01-11T00:12:45;24.27;;;8.57;;
40076;SDS011;25777;47.824;18.982;2024-01-11T00:15:11;26.20;;;9.40;;
40076;SDS011;25777;47.824;18.982;2024-01-11T00:17:37;24.93;;;9.03;;
40076;SDS011;25777;47.824;18.982;2024-01-11T00:20:03;21.30;;;8.13;;
40076;SDS011;25777;47.824;18.982;2024-01-11T00:22:30;25.43;;;8.93;;
40076;SDS011;25777;47.824;18.982;2024-01-11T00:24:57;26.53;;;8.93;;
40076;SDS011;25777;47.824;18.982;2024-01-11T00:27:22;28.03;;;9.53;;
40076;SDS011;25777;47.824;18.982;2024-01-11T00:29:48;22.53;;;8.77;;
40076;SDS011;25777;47.824;18.982;2024-01-11T00:32:14;20.93;;;8.57;;
40076;SDS011;25777;47.824;18.982;2024-01-11T00:34:40;24.90;;;9.23;;
40076;SDS011;25777;47.824;18.982;2024-01-11T00:37:06;26.23;;;9.00;;
40076;SDS011;25777;47.824;18.982;2024-01-11T00:39:31;24.70;;;8.83;;
40076;SDS011;25777;47.824;18.982;2024-01-11T00:41:57;24.93;;;9.13;;
40076;SDS011;25777;47.824;18.982;2024-01-11T00:44:23;25.87;;;9.07;;
40076;SDS011;25777;47.824;18.982;2024-01-11T00:46:49;30.07;;;9.70;;
40076;SDS011;25777;47.824;18.982;2024-01-11T00:49:15;25.70;;;9.03;;
40076;SDS011;25777;47.824;18.982;2024-01-11T00:51:40;30.60;;;10.27;;
40076;SDS011;25777;47.824;18.982;2024-01-11T00:54:06;30.23;;;9.43;;
40076;SDS011;25777;47.824;18.982;2024-01-11T00:56:32;31.37;;;10.47;;
40076;SDS011;25777;47.824;18.982;2024-01-11T00:58:58;30.97;;;10.97;;
40076;SDS011;25777;47.824;18.982;2024-01-11T01:01:24;34.23;;;10.27;;
40076;SDS011;25777;47.824;18.982;2024-01-11T01:03:49;31.00;;;9.83;;
40076;SDS011;25777;47.824;18.982;2024-01-11T01:06:15;34.53;;;10.67;;
40076;SDS011;25777;47.824;18.982;2024-01-11T01:08:41;30.00;;;10.83;;
40076;SDS011;25777;47.824;18.982;2024-01-11T01:11:07;26.73;;;10.00;;
40076;SDS011;25777;47.824;18.982;2024-01-11T01:13:33;31.00;;;11.17;;
40076;SDS011;25777;47.824;18.982;2024-01-11T01:15:58;25.80;;;11.03;;
40076;SDS011;25777;47.824;18.982;2024-01-11T01:18:24;29.07;;;10.30;;
40076;SDS011;25777;47.824;18.982;2024-01-11T01:20:50;30.07;;;10.13;;
40076;SDS011;25777;47.824;18.982;2024-01-11T01:23:16;31.57;;;10.87;;
40076;SDS011;25777;47.824;18.982;2024-01-11T01:25:43;29.43;;;10.60;;
40076;SDS011;25777;47.824;18.982;2024-01-11T01:28:10;32.27;;;10.53;;
40076;SDS011;25777;47.824;18.982;2024-01-11T01:30:35;28.17;;;10.30;;
40076;SDS011;25777;47.824;18.982;2024-01-11T01:33:01;26.93;;;9.43;;
40076;SDS011;25777;47.824;18.982;2024-01-11T01:35:27;25.40;;;10.27;;
40076;SDS011;25777;47.824;18.982;2024-01-11T01:37:53;29.70;;;9.40;;
40076;SDS011;25777;47.824;18.982;2024-01-11T01:40:19;29.27;;;10.33;;
40076;SDS011;25777;47.824;18.982;2024-01-11T01:42:45;27.27;;;9.43;;
40076;SDS011;25777;47.824;18.982;2024-01-11T01:45:11;33.73;;;10.03;;
40076;SDS011;25777;47.824;18.982;2024-01-11T01:47:38;27.23;;;9.83;;
40076;SDS011;25777;47.824;18.982;2024-01-11T01:50:06;25.40;;;9.40;;
40076;SDS011;25777;47.824;18.982;2024-01-11T01:52:32;28.30;;;10.07;;
40076;SDS011;25777;47.824;18.982;2024-01-11T01:54:59;24.93;;;9.73;;
40076;SDS011;25777;47.824;18.982;2024-01-11T01:57:27;27.07;;;9.83;;
40076;SDS011;25777;47.824;18.982;2024-01-11T01:59:55;21.63;;;9.20;;
40076;SDS011;25777;47.824;18.982;2024-01-11T02:02:22;25.90;;;9.40;;
40076;SDS011;25777;47.824;18.982;2024-01-11T02:04:48;29.33;;;9.60;;
40076;SDS011;25777;47.824;18.982;2024-01-11T02:07:14;30.27;;;8.93;;
40076;SDS011;25777;47.824;18.982;2024-01-11T02:09:41;27.67;;;9.07;;
40076;SDS011;25777;47.824;18.982;2024-01-11T02:12:09;23.33;;;9.53;;
40076;SDS011;25777;47.824;18.982;2024-01-11T02:14:37;25.00;;;9.73;;
40076;SDS011;25777;47.824;18.982;2024-01-11T02:17:03;21.07;;;9.03;;
40076;SDS011;25777;47.824;18.982;2024-01-11T02:19:29;24.50;;;9.77;;
40076;SDS011;25777;47.824;18.982;2024-01-11T02:21:55;24.00;;;9.33;;
40076;SDS011;25777;47.824;18.982;2024-01-11T02:24:24;22.73;;;9.27;;
40076;SDS011;25777;47.824;18.982;2024-01-11T02:26:59;28.00;;;8.77;;
40076;SDS011;25777;47.824;18.982;2024-01-11T02:29:27;25.03;;;9.53;;
40076;SDS011;25777;47.824;18.982;2024-01-11T02:31:55;28.43;;;10.03;;
40076;SDS011;25777;47.824;18.982;2024-01-11T02:34:24;25.73;;;9.03;;
40076;SDS011;25777;47.824;18.982;2024-01-11T02:36:52;26.60;;;9.47;;
40076;SDS011;25777;47.824;18.982;2024-01-11T02:39:19;27.63;;;9.37;;
40076;SDS011;25777;47.824;18.982;2024-01-11T02:41:46;26.63;;;10.93;;
40076;SDS011;25777;47.824;18.982;2024-01-11T02:44:15;23.97;;;8.70;;
40076;SDS011;25777;47.824;18.982;2024-01-11T02:46:40;22.03;;;9.10;;
40076;SDS011;25777;47.824;18.982;2024-01-11T02:49:06;32.03;;;10.00;;
40076;SDS011;25777;47.824;18.982;2024-01-11T02:51:32;25.60;;;8.93;;
40076;SDS011;25777;47.824;18.982;2024-01-11T02:53:58;25.63;;;10.07;;
40076;SDS011;25777;47.824;18.982;2024-01-11T02:56:24;24.53;;;9.37;;
40076;SDS011;25777;47.824;18.982;2024-01-11T02:58:50;32.27;;;10.13;;
40076;SDS011;25777;47.824;18.982;2024-01-11T03:01:16;33.83;;;10.80;;
40076;SDS011;25777;47.824;18.982;2024-01-11T03:03:41;28.67;;;10.50;;
40076;SDS011;25777;47.824;18.982;2024-01-11T03:06:07;30.17;;;11.00;;
40076;SDS011;25777;47.824;18.982;2024-01-11T03:08:33;33.63;;;11.20;;
40076;SDS011;25777;47.824;18.982;2024-01-11T03:10:59;27.93;;;10.40;;
40076;SDS011;25777;47.824;18.982;2024-01-11T03:13:25;29.90;;;11.13;;
40076;SDS011;25777;47.824;18.982;2024-01-11T03:15:51;28.13;;;10.63;;
40076;SDS011;25777;47.824;18.982;2024-01-11T03:18:16;28.30;;;11.57;;
40076;SDS011;25777;47.824;18.982;2024-01-11T03:20:42;33.23;;;10.90;;
40076;SDS011;25777;47.824;18.982;2024-01-11T03:23:08;30.00;;;11.90;;
40076;SDS011;25777;47.824;18.982;2024-01-11T03:25:34;31.17;;;11.70;;
40076;SDS011;25777;47.824;18.982;2024-01-11T03:28:00;34.20;;;11.57;;
40076;SDS011;25777;47.824;18.982;2024-01-11T03:30:26;29.87;;;11.47;;
40076;SDS011;25777;47.824;18.982;2024-01-11T03:32:52;29.63;;;11.30;;
40076;SDS011;25777;47.824;18.982;2024-01-11T03:35:18;25.13;;;10.30;;
40076;SDS011;25777;47.824;18.982;2024-01-11T03:37:44;37.60;;;12.33;;
40076;SDS011;25777;47.824;18.982;2024-01-11T03:40:10;33.63;;;12.87;;
40076;SDS011;25777;47.824;18.982;2024-01-11T03:42:36;34.33;;;13.20;;
40076;SDS011;25777;47.824;18.982;2024-01-11T03:45:03;36.87;;;12.20;;
40076;SDS011;25777;47.824;18.982;2024-01-11T03:47:29;33.30;;;12.60;;
40076;SDS011;25777;47.824;18.982;2024-01-11T03:49:55;41.30;;;14.57;;
40076;SDS011;25777;47.824;18.982;2024-01-11T03:52:21;38.50;;;13.60;;
40076;SDS011;25777;47.824;18.982;2024-01-11T03:54:47;36.07;;;14.10;;
40076;SDS011;25777;47.824;18.982;2024-01-11T03:57:13;38.43;;;13.90;;
40076;SDS011;25777;47.824;18.982;2024-01-11T03:59:40;36.47;;;13.87;;
40076;SDS011;25777;47.824;18.982;2024-01-11T04:02:06;37.73;;;13.70;;
40076;SDS011;25777;47.824;18.982;2024-01-11T04:04:32;30.80;;;12.03;;
40076;SDS011;25777;47.824;18.982;2024-01-11T04:06:58;36.57;;;13.33;;
40076;SDS011;25777;47.824;18.982;2024-01-11T04:09:24;35.23;;;12.97;;
40076;SDS011;25777;47.824;18.982;2024-01-11T04:11:50;36.03;;;13.03;;
40076;SDS011;25777;47.824;18.982;2024-01-11T04:14:16;35.10;;;12.73;;
40076;SDS011;25777;47.824;18.982;2024-01-11T04:16:42;39.07;;;13.43;;
40076;SDS011;25777;47.824;18.982;2024-01-11T04:19:09;36.57;;;12.63;;
40076;SDS011;25777;47.824;18.982;2024-01-11T04:21:35;34.07;;;12.03;;
40076;SDS011;25777;47.824;18.982;2024-01-11T04:24:03;32.77;;;12.83;;
40076;SDS011;25777;47.824;18.982;2024-01-11T04:26:33;34.37;;;11.93;;
40076;SDS011;25777;47.824;18.982;2024-01-11T04:29:04;33.53;;;12.40;;
40076;SDS011;25777;47.824;18.982;2024-01-11T04:31:30;34.47;;;11.77;;
40076;SDS011;25777;47.824;18.982;2024-01-11T04:33:56;31.20;;;12.07;;
40076;SDS011;25777;47.824;18.982;2024-01-11T04:36:22;36.27;;;13.80;;
40076;SDS011;25777;47.824;18.982;2024-01-11T04:38:48;36.27;;;12.97;;
40076;SDS011;25777;47.824;18.982;2024-01-11T04:41:14;41.30;;;14.93;;
40076;SDS011;25777;47.824;18.982;2024-01-11T04:43:41;33.23;;;12.80;;
40076;SDS011;25777;47.824;18.982;2024-01-11T04:48:42;33.23;;;13.30;;
40076;SDS011;25777;47.824;18.982;2024-01-11T04:51:09;33.17;;;12.47;;
40076;SDS011;25777;47.824;18.982;2024-01-11T04:53:39;35.73;;;14.10;;
40076;SDS011;25777;47.824;18.982;2024-01-11T04:56:09;36.60;;;13.37;;
40076;SDS011;25777;47.824;18.982;2024-01-11T04:58:36;34.30;;;13.63;;
40076;SDS011;25777;47.824;18.982;2024-01-11T05:01:05;30.93;;;11.80;;
40076;SDS011;25777;47.824;18.982;2024-01-11T05:03:31;33.20;;;11.93;;
40076;SDS011;25777;47.824;18.982;2024-01-11T05:06:00;33.00;;;11.93;;
40076;SDS011;25777;47.824;18.982;2024-01-11T05:08:26;36.70;;;12.77;;
40076;SDS011;25777;47.824;18.982;2024-01-11T05:10:53;37.70;;;12.73;;
40076;SDS011;25777;47.824;18.982;2024-01-11T05:13:18;38.23;;;13.47;;
40076;SDS011;25777;47.824;18.982;2024-01-11T05:15:44;33.40;;;13.67;;
40076;SDS011;25777;47.824;18.982;2024-01-11T05:18:11;33.37;;;12.97;;
40076;SDS011;25777;47.824;18.982;2024-01-11T05:20:38;33.90;;;12.93;;
40076;SDS011;25777;47.824;18.982;2024-01-11T05:23:04;31.00;;;11.97;;
40076;SDS011;25777;47.824;18.982;2024-01-11T05:25:30;34.20;;;12.37;;
40076;SDS011;25777;47.824;18.982;2024-01-11T05:27:59;31.47;;;11.20;;
40076;SDS011;25777;47.824;18.982;2024-01-11T05:30:25;35.30;;;11.90;;
40076;SDS011;25777;47.824;18.982;2024-01-11T05:32:51;32.93;;;12.27;;
40076;SDS011;25777;47.824;18.982;2024-01-11T05:35:17;29.47;;;11.27;;
40076;SDS011;25777;47.824;18.982;2024-01-11T05:37:42;29.47;;;10.77;;
40076;SDS011;25777;47.824;18.982;2024-01-11T05:40:08;34.20;;;11.90;;
40076;SDS011;25777;47.824;18.982;2024-01-11T05:42:34;29.87;;;11.33;;
40076;SDS011;25777;47.824;18.982;2024-01-11T05:45:00;32.73;;;11.93;;
40076;SDS011;25777;47.824;18.982;2024-01-11T05:47:25;30.20;;;11.53;;
40076;SDS011;25777;47.824;18.982;2024-01-11T05:49:51;32.60;;;11.73;;
40076;SDS011;25777;47.824;18.982;2024-01-11T05:52:17;28.27;;;11.63;;
40076;SDS011;25777;47.824;18.982;2024-01-11T05:54:43;38.70;;;12.70;;
40076;SDS011;25777;47.824;18.982;2024-01-11T05:57:09;33.97;;;12.57;;
40076;SDS011;25777;47.824;18.982;2024-01-11T05:59:34;30.77;;;12.43;;
40076;SDS011;25777;47.824;18.982;2024-01-11T06:02:00;32.73;;;11.80;;
40076;SDS011;25777;47.824;18.982;2024-01-11T06:04:26;36.23;;;12.40;;
40076;SDS011;25777;47.824;18.982;2024-01-11T06:06:52;31.23;;;11.90;;
40076;SDS011;25777;47.824;18.982;2024-01-11T06:09:18;32.23;;;12.73;;
40076;SDS011;25777;47.824;18.982;2024-01-11T06:11:44;29.43;;;11.63;;
40076;SDS011;25777;47.824;18.982;2024-01-11T06:14:10;31.10;;;12.77;;
40076;SDS011;25777;47.824;18.982;2024-01-11T06:16:35;38.60;;;12.73;;
40076;SDS011;25777;47.824;18.982;2024-01-11T06:19:01;37.20;;;13.27;;
40076;SDS011;25777;47.824;18.982;2024-01-11T06:21:27;37.90;;;13.67;;
40076;SDS011;25777;47.824;18.982;2024-01-11T06:23:53;32.67;;;12.70;;
40076;SDS011;25777;47.824;18.982;2024-01-11T06:26:19;43.87;;;15.80;;
40076;SDS011;25777;47.824;18.982;2024-01-11T06:28:45;43.80;;;16.07;;
40076;SDS011;25777;47.824;18.982;2024-01-11T06:31:11;43.57;;;15.93;;
40076;SDS011;25777;47.824;18.982;2024-01-11T06:33:37;40.30;;;16.10;;
40076;SDS011;25777;47.824;18.982;2024-01-11T06:36:06;48.27;;;16.67;;
40076;SDS011;25777;47.824;18.982;2024-01-11T06:38:35;39.70;;;15.87;;
40076;SDS011;25777;47.824;18.982;2024-01-11T06:41:01;42.90;;;16.30;;
40076;SDS011;25777;47.824;18.982;2024-01-11T06:43:26;42.47;;;15.33;;
40076;SDS011;25777;47.824;18.982;2024-01-11T06:45:53;36.67;;;15.23;;
40076;SDS011;25777;47.824;18.982;2024-01-11T06:48:18;36.40;;;14.93;;
40076;SDS011;25777;47.824;18.982;2024-01-11T06:50:44;42.17;;;15.13;;
40076;SDS011;25777;47.824;18.982;2024-01-11T06:53:10;44.17;;;15.43;;
40076;SDS011;25777;47.824;18.982;2024-01-11T06:55:36;42.17;;;15.63;;
40076;SDS011;25777;47.824;18.982;2024-01-11T06:58:02;33.97;;;14.30;;
40076;SDS011;25777;47.824;18.982;2024-01-11T07:00:28;44.27;;;15.30;;
40076;SDS011;25777;47.824;18.982;2024-01-11T07:02:54;43.47;;;15.80;;
40076;SDS011;25777;47.824;18.982;2024-01-11T07:05:20;41.43;;;15.23;;
40076;SDS011;25777;47.824;18.982;2024-01-11T07:07:46;43.07;;;15.63;;
40076;SDS011;25777;47.824;18.982;2024-01-11T07:10:12;42.03;;;15.27;;
40076;SDS011;25777;47.824;18.982;2024-01-11T07:12:38;39.03;;;15.73;;
40076;SDS011;25777;47.824;18.982;2024-01-11T07:15:06;44.27;;;15.13;;
40076;SDS011;25777;47.824;18.982;2024-01-11T07:17:33;41.87;;;15.10;;
40076;SDS011;25777;47.824;18.982;2024-01-11T07:19:59;39.97;;;14.67;;
40076;SDS011;25777;47.824;18.982;2024-01-11T07:22:24;35.13;;;13.80;;
40076;SDS011;25777;47.824;18.982;2024-01-11T07:24:56;36.20;;;14.17;;
40076;SDS011;25777;47.824;18.982;2024-01-11T07:27:22;39.37;;;14.67;;
40076;SDS011;25777;47.824;18.982;2024-01-11T07:29:48;41.03;;;15.67;;
40076;SDS011;25777;47.824;18.982;2024-01-11T07:32:14;40.97;;;15.50;;
40076;SDS011;25777;47.824;18.982;2024-01-11T07:34:40;40.80;;;16.10;;
40076;SDS011;25777;47.824;18.982;2024-01-11T07:37:06;44.87;;;15.73;;
40076;SDS011;25777;47.824;18.982;2024-01-11T07:39:31;43.77;;;14.83;;
40076;SDS011;25777;47.824;18.982;2024-01-11T07:41:57;38.67;;;15.33;;
40076;SDS011;25777;47.824;18.982;2024-01-11T07:44:23;42.83;;;14.83;;
40076;SDS011;25777;47.824;18.982;2024-01-11T07:46:49;42.10;;;15.83;;
40076;SDS011;25777;47.824;18.982;2024-01-11T07:49:14;39.23;;;14.63;;
40076;SDS011;25777;47.824;18.982;2024-01-11T07:51:40;39.67;;;14.90;;
40076;SDS011;25777;47.824;18.982;2024-01-11T07:54:06;38.97;;;15.03;;
40076;SDS011;25777;47.824;18.982;2024-01-11T07:56:32;42.33;;;14.77;;
40076;SDS011;25777;47.824;18.982;2024-01-11T07:58:58;43.03;;;15.60;;
40076;SDS011;25777;47.824;18.982;2024-01-11T08:01:24;37.13;;;14.17;;
40076;SDS011;25777;47.824;18.982;2024-01-11T08:03:50;40.10;;;15.47;;
40076;SDS011;25777;47.824;18.982;2024-01-11T08:06:17;44.37;;;16.17;;
40076;SDS011;25777;47.824;18.982;2024-01-11T08:08:43;38.10;;;14.00;;
40076;SDS011;25777;47.824;18.982;2024-01-11T08:11:09;44.00;;;16.53;;
40076;SDS011;25777;47.824;18.982;2024-01-11T08:13:38;46.23;;;16.90;;
40076;SDS011;25777;47.824;18.982;2024-01-11T08:16:04;42.50;;;15.13;;
40076;SDS011;25777;47.824;18.982;2024-01-11T08:18:34;42.13;;;15.53;;
40076;SDS011;25777;47.824;18.982;2024-01-11T08:21:00;43.83;;;16.40;;
40076;SDS011;25777;47.824;18.982;2024-01-11T08:23:26;45.00;;;15.60;;
40076;SDS011;25777;47.824;18.982;2024-01-11T08:25:52;40.93;;;15.40;;
40076;SDS011;25777;47.824;18.982;2024-01-11T08:28:18;44.47;;;17.07;;
40076;SDS011;25777;47.824;18.982;2024-01-11T08:30:45;38.97;;;15.27;;
40076;SDS011;25777;47.824;18.982;2024-01-11T08:33:11;38.13;;;15.57;;
40076;SDS011;25777;47.824;18.982;2024-01-11T08:35:38;38.10;;;15.83;;
40076;SDS011;25777;47.824;18.982;2024-01-11T08:38:05;41.40;;;16.13;;
40076;SDS011;25777;47.824;18.982;2024-01-11T08:40:31;41.67;;;15.33;;
40076;SDS011;25777;47.824;18.982;2024-01-11T08:42:58;43.93;;;16.97;;
40076;SDS011;25777;47.824;18.982;2024-01-11T08:45:24;35.60;;;16.03;;
40076;SDS011;25777;47.824;18.982;2024-01-11T08:47:50;38.80;;;15.67;;
40076;SDS011;25777;47.824;18.982;2024-01-11T08:50:16;47.47;;;16.83;;
40076;SDS011;25777;47.824;18.982;2024-01-11T08:52:43;34.87;;;14.20;;
40076;SDS011;25777;47.824;18.982;2024-01-11T08:55:09;42.27;;;13.83;;
40076;SDS011;25777;47.824;18.982;2024-01-11T08:57:35;34.83;;;14.27;;
40076;SDS011;25777;47.824;18.982;2024-01-11T09:00:10;39.83;;;15.20;;
40076;SDS011;25777;47.824;18.982;2024-01-11T09:02:36;38.50;;;15.17;;
40076;SDS011;25777;47.824;18.982;2024-01-11T09:05:02;39.37;;;15.77;;
40076;SDS011;25777;47.824;18.982;2024-01-11T09:07:32;38.17;;;15.87;;
40076;SDS011;25777;47.824;18.982;2024-01-11T09:09:58;37.57;;;14.80;;
40076;SDS011;25777;47.824;18.982;2024-01-11T09:12:23;34.47;;;15.57;;
40076;SDS011;25777;47.824;18.982;2024-01-11T09:14:49;41.97;;;15.83;;
40076;SDS011;25777;47.824;18.982;2024-01-11T09:17:15;45.20;;;16.33;;
40076;SDS011;25777;47.824;18.982;2024-01-11T09:19:41;36.60;;;15.07;;
40076;SDS011;25777;47.824;18.982;2024-01-11T09:22:06;33.13;;;13.43;;
40076;SDS011;25777;47.824;18.982;2024-01-11T09:24:35;40.23;;;16.70;;
40076;SDS011;25777;47.824;18.982;2024-01-11T09:27:01;38.67;;;14.77;;
40076;SDS011;25777;47.824;18.982;2024-01-11T09:29:29;37.00;;;15.50;;
40076;SDS011;25777;47.824;18.982;2024-01-11T09:31:55;37.40;;;16.93;;
40076;SDS011;25777;47.824;18.982;2024-01-11T09:34:20;38.03;;;15.40;;
40076;SDS011;25777;47.824;18.982;2024-01-11T09:36:47;36.10;;;15.20;;
40076;SDS011;25777;47.824;18.982;2024-01-11T09:39:12;35.47;;;15.23;;
40076;SDS011;25777;47.824;18.982;2024-01-11T09:41:40;31.70;;;14.53;;
40076;SDS011;25777;47.824;18.982;2024-01-11T09:44:12;32.50;;;14.63;;
40076;SDS011;25777;47.824;18.982;2024-01-11T09:46:39;36.73;;;14.87;;
40076;SDS011;25777;47.824;18.982;2024-01-11T09:49:05;36.07;;;15.53;;
40076;SDS011;25777;47.824;18.982;2024-01-11T09:51:32;35.73;;;14.60;;
40076;SDS011;25777;47.824;18.982;2024-01-11T09:54:02;35.30;;;14.57;;
40076;SDS011;25777;47.824;18.982;2024-01-11T09:56:28;32.27;;;13.87;;
40076;SDS011;25777;47.824;18.982;2024-01-11T09:58:54;41.53;;;15.30;;
40076;SDS011;25777;47.824;18.982;2024-01-11T10:01:20;36.90;;;14.10;;
40076;SDS011;25777;47.824;18.982;2024-01-11T10:03:47;38.10;;;15.43;;
40076;SDS011;25777;47.824;18.982;2024-01-11T10:06:15;31.00;;;13.40;;
40076;SDS011;25777;47.824;18.982;2024-01-11T10:08:43;34.97;;;15.17;;
40076;SDS011;25777;47.824;18.982;2024-01-11T10:11:09;35.80;;;15.37;;
40076;SDS011;25777;47.824;18.982;2024-01-11T10:13:35;33.53;;;14.97;;
40076;SDS011;25777;47.824;18.982;2024-01-11T10:16:08;34.50;;;15.27;;
40076;SDS011;25777;47.824;18.982;2024-01-11T10:18:35;30.90;;;13.83;;
40076;SDS011;25777;47.824;18.982;2024-01-11T10:21:02;30.63;;;14.30;;
40076;SDS011;25777;47.824;18.982;2024-01-11T10:23:28;29.43;;;13.73;;
40076;SDS011;25777;47.824;18.982;2024-01-11T10:25:57;28.20;;;13.30;;
40076;SDS011;25777;47.824;18.982;2024-01-11T10:28:24;27.50;;;13.23;;
40076;SDS011;25777;47.824;18.982;2024-01-11T10:30:51;31.07;;;13.90;;
40076;SDS011;25777;47.824;18.982;2024-01-11T10:33:21;29.67;;;13.30;;
40076;SDS011;25777;47.824;18.982;2024-01-11T10:35:51;27.67;;;11.87;;
40076;SDS011;25777;47.824;18.982;2024-01-11T10:38:17;31.57;;;13.80;;
40076;SDS011;25777;47.824;18.982;2024-01-11T10:40:43;30.57;;;12.73;;
40076;SDS011;25777;47.824;18.982;2024-01-11T10:43:10;33.53;;;13.67;;
40076;SDS011;25777;47.824;18.982;2024-01-11T10:45:36;32.50;;;13.77;;
40076;SDS011;25777;47.824;18.982;2024-01-11T10:48:15;29.87;;;13.07;;
40076;SDS011;25777;47.824;18.982;2024-01-11T10:50:45;32.23;;;14.00;;
40076;SDS011;25777;47.824;18.982;2024-01-11T10:55:43;31.80;;;12.37;;
40076;SDS011;25777;47.824;18.982;2024-01-11T10:58:10;26.73;;;11.83;;
40076;SDS011;25777;47.824;18.982;2024-01-11T11:00:36;30.13;;;13.40;;
40076;SDS011;25777;47.824;18.982;2024-01-11T11:03:03;28.97;;;13.17;;
40076;SDS011;25777;47.824;18.982;2024-01-11T11:05:32;31.17;;;14.37;;
40076;SDS011;25777;47.824;18.982;2024-01-11T11:08:01;33.27;;;13.27;;
40076;SDS011;25777;47.824;18.982;2024-01-11T11:10:36;30.20;;;13.10;;
40076;SDS011;25777;47.824;18.982;2024-01-11T11:13:04;32.83;;;13.50;;
40076;SDS011;25777;47.824;18.982;2024-01-11T11:15:31;37.07;;;15.00;;
40076;SDS011;25777;47.824;18.982;2024-01-11T11:17:58;34.53;;;15.03;;
40076;SDS011;25777;47.824;18.982;2024-01-11T11:20:26;34.10;;;14.13;;
40076;SDS011;25777;47.824;18.982;2024-01-11T11:23:08;35.87;;;15.57;;
40076;SDS011;25777;47.824;18.982;2024-01-11T11:25:36;34.78;;;15.77;;
40076;SDS011;25777;47.824;18.982;2024-01-11T11:28:04;35.43;;;15.60;;
40076;SDS011;25777;47.824;18.982;2024-01-11T11:30:30;40.20;;;15.30;;
40076;SDS011;25777;47.824;18.982;2024-01-11T11:32:56;41.63;;;15.83;;
40076;SDS011;25777;47.824;18.982;2024-01-11T11:35:23;33.37;;;13.63;;
40076;SDS011;25777;47.824;18.982;2024-01-11T11:37:53;30.70;;;13.60;;
40076;SDS011;25777;47.824;18.982;2024-01-11T11:40:31;31.30;;;13.23;;
40076;SDS011;25777;47.824;18.982;2024-01-11T11:43:00;34.47;;;13.37;;
40076;SDS011;25777;47.824;18.982;2024-01-11T11:45:27;22.23;;;9.73;;
40076;SDS011;25777;47.824;18.982;2024-01-11T11:47:53;26.40;;;11.27;;
40076;SDS011;25777;47.824;18.982;2024-01-11T11:50:21;17.20;;;7.07;;
40076;SDS011;25777;47.824;18.982;2024-01-11T11:52:53;24.57;;;9.77;;
40076;SDS011;25777;47.824;18.982;2024-01-11T11:55:23;25.13;;;10.57;;
40076;SDS011;25777;47.824;18.982;2024-01-11T11:57:53;27.33;;;11.30;;
40076;SDS011;25777;47.824;18.982;2024-01-11T12:00:19;26.97;;;9.97;;
40076;SDS011;25777;47.824;18.982;2024-01-11T12:02:48;26.97;;;10.03;;
40076;SDS011;25777;47.824;18.982;2024-01-11T12:05:17;25.77;;;10.47;;
40076;SDS011;25777;47.824;18.982;2024-01-11T12:07:46;22.30;;;9.77;;
40076;SDS011;25777;47.824;18.982;2024-01-11T12:10:12;21.73;;;10.27;;
40076;SDS011;25777;47.824;18.982;2024-01-11T12:12:39;26.10;;;10.63;;
40076;SDS011;25777;47.824;18.982;2024-01-11T12:15:05;25.10;;;9.13;;
40076;SDS011;25777;47.824;18.982;2024-01-11T12:17:32;24.37;;;10.47;;
40076;SDS011;25777;47.824;18.982;2024-01-11T12:19:58;23.93;;;9.27;;
40076;SDS011;25777;47.824;18.982;2024-01-11T12:22:24;23.50;;;10.00;;
40076;SDS011;25777;47.824;18.982;2024-01-11T12:24:50;24.20;;;9.57;;
40076;SDS011;25777;47.824;18.982;2024-01-11T12:27:16;27.17;;;10.37;;
40076;SDS011;25777;47.824;18.982;2024-01-11T12:29:42;27.20;;;10.80;;
40076;SDS011;25777;47.824;18.982;2024-01-11T12:32:08;27.93;;;10.20;;
40076;SDS011;25777;47.824;18.982;2024-01-11T12:34:37;23.50;;;9.27;;
40076;SDS011;25777;47.824;18.982;2024-01-11T12:37:04;22.97;;;10.30;;
40076;SDS011;25777;47.824;18.982;2024-01-11T12:39:31;26.97;;;10.90;;
40076;SDS011;25777;47.824;18.982;2024-01-11T12:41:57;26.67;;;10.83;;
40076;SDS011;25777;47.824;18.982;2024-01-11T12:44:23;21.90;;;9.40;;
40076;SDS011;25777;47.824;18.982;2024-01-11T12:46:52;24.40;;;8.97;;
40076;SDS011;25777;47.824;18.982;2024-01-11T12:49:18;23.90;;;11.00;;
40076;SDS011;25777;47.824;18.982;2024-01-11T12:51:45;27.60;;;10.70;;
40076;SDS011;25777;47.824;18.982;2024-01-11T12:54:11;27.87;;;12.10;;
40076;SDS011;25777;47.824;18.982;2024-01-11T12:56:44;36.13;;;14.37;;
40076;SDS011;25777;47.824;18.982;2024-01-11T12:59:11;29.83;;;12.60;;
40076;SDS011;25777;47.824;18.982;2024-01-11T13:01:40;35.50;;;18.77;;
40076;SDS011;25777;47.824;18.982;2024-01-11T13:04:09;22.10;;;11.13;;
40076;SDS011;25777;47.824;18.982;2024-01-11T13:06:35;29.87;;;12.77;;
40076;SDS011;25777;47.824;18.982;2024-01-11T13:09:01;25.53;;;11.07;;
40076;SDS011;25777;47.824;18.982;2024-01-11T13:11:28;24.97;;;10.23;;
40076;SDS011;25777;47.824;18.982;2024-01-11T13:13:54;30.20;;;12.40;;
40076;SDS011;25777;47.824;18.982;2024-01-11T13:16:20;25.83;;;9.83;;
40076;SDS011;25777;47.824;18.982;2024-01-11T13:18:47;24.70;;;10.00;;
40076;SDS011;25777;47.824;18.982;2024-01-11T13:21:13;31.07;;;10.90;;
40076;SDS011;25777;47.824;18.982;2024-01-11T13:23:39;22.23;;;9.77;;
40076;SDS011;25777;47.824;18.982;2024-01-11T13:26:05;28.83;;;11.87;;
40076;SDS011;25777;47.824;18.982;2024-01-11T13:28:35;24.17;;;10.07;;
40076;SDS011;25777;47.824;18.982;2024-01-11T13:31:01;26.70;;;10.87;;
40076;SDS011;25777;47.824;18.982;2024-01-11T13:33:27;27.57;;;10.70;;
40076;SDS011;25777;47.824;18.982;2024-01-11T13:35:53;23.67;;;10.43;;
40076;SDS011;25777;47.824;18.982;2024-01-11T13:38:19;21.77;;;8.67;;
40076;SDS011;25777;47.824;18.982;2024-01-11T13:40:46;23.57;;;9.60;;
40076;SDS011;25777;47.824;18.982;2024-01-11T13:43:11;22.83;;;10.03;;
40076;SDS011;25777;47.824;18.982;2024-01-11T13:45:37;19.23;;;8.97;;
40076;SDS011;25777;47.824;18.982;2024-01-11T13:48:03;19.30;;;6.63;;
40076;SDS011;25777;47.824;18.982;2024-01-11T13:50:30;18.87;;;7.30;;
40076;SDS011;25777;47.824;18.982;2024-01-11T13:52:57;21.40;;;9.03;;
40076;SDS011;25777;47.824;18.982;2024-01-11T13:55:23;21.90;;;9.23;;
40076;SDS011;25777;47.824;18.982;2024-01-11T13:57:50;23.40;;;9.07;;
40076;SDS011;25777;47.824;18.982;2024-01-11T14:00:16;24.17;;;9.30;;
40076;SDS011;25777;47.824;18.982;2024-01-11T14:02:46;21.50;;;9.00;;
40076;SDS011;25777;47.824;18.982;2024-01-11T14:05:12;21.73;;;9.63;;
40076;SDS011;25777;47.824;18.982;2024-01-11T14:07:40;25.10;;;9.70;;
40076;SDS011;25777;47.824;18.982;2024-01-11T14:10:07;26.27;;;9.70;;
40076;SDS011;25777;47.824;18.982;2024-01-11T14:12:37;30.47;;;12.37;;